sensor_id;sensor_type;location;lat;lon;timestamp;pressure;altitude;pressure_sealevel;temperature;humidity
60371;BME280;48550;40.588;49.684;2022-12-11T00:02:22;102753.72;;;4.86;100.00
60371;BME280;48550;40.588;49.684;2022-12-11T00:04:48;102749.19;;;4.96;100.00
60371;BME280;48550;40.588;49.684;2022-12-11T00:07:14;102752.00;;;4.95;100.00
60371;BME280;48550;40.588;49.684;2022-12-11T00:09:39;102741.50;;;4.93;100.00
60371;BME280;48550;40.588;49.684;2022-12-11T00:12:05;102741.13;;;4.88;100.00
60371;BME280;48550;40.588;49.684;2022-12-11T00:14:32;102745.59;;;4.88;100.00
60371;BME280;48550;40.588;49.684;2022-12-11T00:16:58;102739.59;;;4.86;100.00
60371;BME280;48550;40.588;49.684;2022-12-11T00:19:23;102738.75;;;4.85;100.00
60371;BME280;48550;40.588;49.684;2022-12-11T00:21:49;102742.66;;;4.91;100.00
60371;BME280;48550;40.588;49.684;2022-12-11T00:24:15;102733.41;;;4.85;100.00
60371;BME280;48550;40.588;49.684;2022-12-11T00:26:41;102729.63;;;4.88;100.00
60371;BME280;48550;40.588;49.684;2022-12-11T00:29:06;102711.59;;;4.82;100.00
60371;BME280;48550;40.588;49.684;2022-12-11T00:31:39;102714.50;;;4.88;100.00
60371;BME280;48550;40.588;49.684;2022-12-11T00:34:06;102725.22;;;5.06;100.00
60371;BME280;48550;40.588;49.684;2022-12-11T00:36:32;102723.97;;;5.00;100.00
60371;BME280;48550;40.588;49.684;2022-12-11T00:38:57;102723.56;;;4.95;100.00
60371;BME280;48550;40.588;49.684;2022-12-11T00:41:23;102719.38;;;4.93;100.00
60371;BME280;48550;40.588;49.684;2022-12-11T00:43:49;102715.19;;;4.90;100.00
60371;BME280;48550;40.588;49.684;2022-12-11T00:46:15;102716.03;;;4.91;100.00
60371;BME280;48550;40.588;49.684;2022-12-11T00:48:41;102716.03;;;4.91;100.00
60371;BME280;48550;40.588;49.684;2022-12-11T00:51:08;102715.19;;;4.90;100.00
60371;BME280;48550;40.588;49.684;2022-12-11T00:53:34;102721.22;;;4.92;100.00
60371;BME280;48550;40.588;49.684;2022-12-11T00:56:08;102711.25;;;4.94;100.00
60371;BME280;48550;40.588;49.684;2022-12-11T00:58:34;102726.25;;;4.95;100.00
60371;BME280;48550;40.588;49.684;2022-12-11T01:01:11;102724.72;;;4.93;100.00
60371;BME280;48550;40.588;49.684;2022-12-11T01:03:37;102724.03;;;4.91;100.00
60371;BME280;48550;40.588;49.684;2022-12-11T01:06:04;102722.34;;;4.90;100.00
60371;BME280;48550;40.588;49.684;2022-12-11T01:08:30;102726.97;;;4.88;100.00
60371;BME280;48550;40.588;49.684;2022-12-11T01:11:06;102716.78;;;4.83;100.00
60371;BME280;48550;40.588;49.684;2022-12-11T01:13:32;102714.25;;;4.82;100.00
60371;BME280;48550;40.588;49.684;2022-12-11T01:15:57;102712.44;;;4.82;100.00
60371;BME280;48550;40.588;49.684;2022-12-11T01:18:24;102720.13;;;4.85;100.00
60371;BME280;48550;40.588;49.684;2022-12-11T01:20:50;102708.63;;;4.85;100.00
60371;BME280;48550;40.588;49.684;2022-12-11T01:23:16;102715.19;;;4.90;100.00
60371;BME280;48550;40.588;49.684;2022-12-11T01:25:42;102709.03;;;4.90;100.00
60371;BME280;48550;40.588;49.684;2022-12-11T01:28:08;102710.56;;;4.92;100.00
60371;BME280;48550;40.588;49.684;2022-12-11T01:30:34;102711.41;;;4.93;100.00
60371;BME280;48550;40.588;49.684;2022-12-11T01:33:01;102715.59;;;4.95;100.00
60371;BME280;48550;40.588;49.684;2022-12-11T01:35:27;102722.44;;;4.98;100.00
60371;BME280;48550;40.588;49.684;2022-12-11T01:37:53;102711.81;;;4.98;100.00
60371;BME280;48550;40.588;49.684;2022-12-11T01:40:20;102719.94;;;4.96;100.00
60371;BME280;48550;40.588;49.684;2022-12-11T01:42:45;102717.41;;;4.95;100.00
60371;BME280;48550;40.588;49.684;2022-12-11T01:45:15;102709.72;;;4.92;100.00
60371;BME280;48550;40.588;49.684;2022-12-11T01:47:45;102716.19;;;4.89;100.00
60371;BME280;48550;40.588;49.684;2022-12-11T01:50:10;102712.00;;;4.87;100.00
60371;BME280;48550;40.588;49.684;2022-12-11T01:52:36;102713.97;;;4.85;100.00
60371;BME280;48550;40.588;49.684;2022-12-11T01:55:02;102705.97;;;4.85;100.00
60371;BME280;48550;40.588;49.684;2022-12-11T01:57:28;102708.50;;;4.86;100.00
60371;BME280;48550;40.588;49.684;2022-12-11T01:59:54;102711.31;;;4.85;100.00
60371;BME280;48550;40.588;49.684;2022-12-11T02:02:25;102707.66;;;4.86;100.00
60371;BME280;48550;40.588;49.684;2022-12-11T02:04:52;102713.81;;;4.86;100.00
60371;BME280;48550;40.588;49.684;2022-12-11T02:07:18;102705.44;;;4.81;100.00
60371;BME280;48550;40.588;49.684;2022-12-11T02:09:45;102706.81;;;4.85;100.00
60371;BME280;48550;40.588;49.684;2022-12-11T02:17:41;102713.22;;;4.92;100.00
60371;BME280;48550;40.588;49.684;2022-12-11T02:25:31;102717.56;;;4.93;100.00
60371;BME280;48550;40.588;49.684;2022-12-11T02:28:16;102713.53;;;4.89;100.00
60371;BME280;48550;40.588;49.684;2022-12-11T02:30:48;102710.16;;;4.87;100.00
60371;BME280;48550;40.588;49.684;2022-12-11T02:33:20;102713.28;;;4.83;100.00
60371;BME280;48550;40.588;49.684;2022-12-11T02:35:48;102706.84;;;4.75;100.00
60371;BME280;48550;40.588;49.684;2022-12-11T02:38:23;102694.53;;;4.74;100.00
60371;BME280;48550;40.588;49.684;2022-12-11T02:40:52;102713.16;;;4.74;100.00
60371;BME280;48550;40.588;49.684;2022-12-11T02:43:20;102709.13;;;4.70;100.00
60371;BME280;48550;40.588;49.684;2022-12-11T02:45:48;102708.97;;;4.72;100.00
60371;BME280;48550;40.588;49.684;2022-12-11T02:48:16;102703.34;;;4.75;100.00
60371;BME280;48550;40.588;49.684;2022-12-11T02:50:46;102706.28;;;4.82;100.00
60371;BME280;48550;40.588;49.684;2022-12-11T02:53:15;102701.19;;;4.88;100.00
60371;BME280;48550;40.588;49.684;2022-12-11T02:55:43;102700.66;;;4.85;100.00
60371;BME280;48550;40.588;49.684;2022-12-11T02:58:23;102699.97;;;4.83;100.00
60371;BME280;48550;40.588;49.684;2022-12-11T03:00:50;102699.56;;;4.77;100.00
60371;BME280;48550;40.588;49.684;2022-12-11T03:03:16;102710.06;;;4.79;100.00
60371;BME280;48550;40.588;49.684;2022-12-11T03:05:42;102708.28;;;4.70;100.00
60371;BME280;48550;40.588;49.684;2022-12-11T03:08:08;102699.75;;;4.66;100.00
60371;BME280;48550;40.588;49.684;2022-12-11T03:10:34;102704.97;;;4.58;100.00
60371;BME280;48550;40.588;49.684;2022-12-11T03:13:00;102700.63;;;4.57;100.00
60371;BME280;48550;40.588;49.684;2022-12-11T03:16:02;102701.06;;;4.53;100.00
60371;BME280;48550;40.588;49.684;2022-12-11T03:18:35;102696.28;;;4.56;100.00
60371;BME280;48550;40.588;49.684;2022-12-11T03:21:31;102698.25;;;4.54;100.00
60371;BME280;48550;40.588;49.684;2022-12-11T03:26:27;102685.25;;;4.51;100.00
60371;BME280;48550;40.588;49.684;2022-12-11T03:28:57;102697.69;;;4.60;100.00
60371;BME280;48550;40.588;49.684;2022-12-11T03:31:26;102696.00;;;4.59;100.00
60371;BME280;48550;40.588;49.684;2022-12-11T03:33:55;102704.13;;;4.58;100.00
60371;BME280;48550;40.588;49.684;2022-12-11T03:36:30;102699.78;;;4.57;100.00
60371;BME280;48550;40.588;49.684;2022-12-11T03:39:06;102699.09;;;4.55;100.00
60371;BME280;48550;40.588;49.684;2022-12-11T03:41:33;102702.88;;;4.52;100.00
60371;BME280;48550;40.588;49.684;2022-12-11T03:44:00;102706.38;;;4.53;100.00
60371;BME280;48550;40.588;49.684;2022-12-11T03:46:33;102707.78;;;4.47;100.00
60371;BME280;48550;40.588;49.684;2022-12-11T03:49:05;102710.31;;;4.49;100.00
60371;BME280;48550;40.588;49.684;2022-12-11T03:51:33;102713.94;;;4.47;100.00
60371;BME280;48550;40.588;49.684;2022-12-11T03:54:00;102710.56;;;4.45;100.00
60371;BME280;48550;40.588;49.684;2022-12-11T03:56:29;102709.72;;;4.45;100.00
60371;BME280;48550;40.588;49.684;2022-12-11T03:58:57;102704.41;;;4.45;100.00
60371;BME280;48550;40.588;49.684;2022-12-11T04:01:23;102697.69;;;4.41;100.00
60371;BME280;48550;40.588;49.684;2022-12-11T04:03:49;102710.00;;;4.42;100.00
60371;BME280;48550;40.588;49.684;2022-12-11T04:06:14;102709.31;;;4.40;100.00
60371;BME280;48550;40.588;49.684;2022-12-11T04:08:40;102711.00;;;4.41;100.00
60371;BME280;48550;40.588;49.684;2022-12-11T04:11:05;102712.13;;;4.48;100.00
60371;BME280;48550;40.588;49.684;2022-12-11T04:13:50;102712.28;;;4.46;100.00
60371;BME280;48550;40.588;49.684;2022-12-11T04:16:35;102709.63;;;4.46;100.00
60371;BME280;48550;40.588;49.684;2022-12-11T04:19:01;102719.25;;;4.47;100.00
60371;BME280;48550;40.588;49.684;2022-12-11T04:21:46;102720.38;;;4.55;100.00
60371;BME280;48550;40.588;49.684;2022-12-11T04:24:30;102713.22;;;4.55;100.00
60371;BME280;48550;40.588;49.684;2022-12-11T04:26:56;102720.91;;;4.58;100.00
60371;BME280;48550;40.588;49.684;2022-12-11T04:29:21;102721.03;;;4.66;100.00
60371;BME280;48550;40.588;49.684;2022-12-11T04:31:47;102715.69;;;4.76;100.00
60371;BME280;48550;40.588;49.684;2022-12-11T04:34:15;102724.06;;;4.81;100.00
60371;BME280;48550;40.588;49.684;2022-12-11T04:36:41;102727.22;;;4.94;100.00
60371;BME280;48550;40.588;49.684;2022-12-11T04:39:07;102732.78;;;5.01;100.00
60371;BME280;48550;40.588;49.684;2022-12-11T04:41:33;102724.38;;;5.05;100.00
60371;BME280;48550;40.588;49.684;2022-12-11T04:43:59;102725.69;;;5.19;100.00
60371;BME280;48550;40.588;49.684;2022-12-11T04:46:25;102733.53;;;5.30;100.00
60371;BME280;48550;40.588;49.684;2022-12-11T04:48:52;102740.47;;;5.41;100.00
60371;BME280;48550;40.588;49.684;2022-12-11T04:51:18;102737.16;;;5.74;100.00
60371;BME280;48550;40.588;49.684;2022-12-11T04:53:45;102733.13;;;5.70;100.00
60371;BME280;48550;40.588;49.684;2022-12-11T04:56:13;102742.78;;;5.71;100.00
60371;BME280;48550;40.588;49.684;2022-12-11T04:58:40;102749.56;;;5.66;100.00
60371;BME280;48550;40.588;49.684;2022-12-11T05:01:11;102752.59;;;5.71;100.00
60371;BME280;48550;40.588;49.684;2022-12-11T05:03:37;102748.66;;;5.75;100.00
60371;BME280;48550;40.588;49.684;2022-12-11T05:06:03;102745.22;;;5.83;100.00
60371;BME280;48550;40.588;49.684;2022-12-11T05:08:29;102745.47;;;5.89;100.00
60371;BME280;48550;40.588;49.684;2022-12-11T05:10:59;102746.56;;;5.96;100.00
60371;BME280;48550;40.588;49.684;2022-12-11T05:13:26;102752.59;;;5.98;100.00
60371;BME280;48550;40.588;49.684;2022-12-11T05:15:53;102757.31;;;6.04;100.00
60371;BME280;48550;40.588;49.684;2022-12-11T05:18:18;102751.38;;;6.11;100.00
60371;BME280;48550;40.588;49.684;2022-12-11T05:20:44;102756.25;;;6.15;100.00
60371;BME280;48550;40.588;49.684;2022-12-11T05:23:10;102754.09;;;6.19;100.00
60371;BME280;48550;40.588;49.684;2022-12-11T05:25:36;102758.34;;;6.29;100.00
60371;BME280;48550;40.588;49.684;2022-12-11T05:28:01;102758.94;;;6.41;100.00
60371;BME280;48550;40.588;49.684;2022-12-11T05:30:27;102746.28;;;6.43;100.00
60371;BME280;48550;40.588;49.684;2022-12-11T05:32:53;102747.53;;;6.75;100.00
60371;BME280;48550;40.588;49.684;2022-12-11T05:35:18;102748.44;;;6.65;100.00
60371;BME280;48550;40.588;49.684;2022-12-11T05:37:44;102749.34;;;6.74;100.00
60371;BME280;48550;40.588;49.684;2022-12-11T05:40:10;102749.59;;;7.23;100.00
60371;BME280;48550;40.588;49.684;2022-12-11T05:42:39;102748.84;;;7.05;100.00
60371;BME280;48550;40.588;49.684;2022-12-11T05:45:05;102754.06;;;7.14;100.00
60371;BME280;48550;40.588;49.684;2022-12-11T05:47:31;102755.06;;;7.13;100.00
60371;BME280;48550;40.588;49.684;2022-12-11T05:49:56;102761.03;;;7.07;100.00
60371;BME280;48550;40.588;49.684;2022-12-11T05:52:22;102753.00;;;6.99;100.00
60371;BME280;48550;40.588;49.684;2022-12-11T05:54:48;102750.63;;;6.96;100.00
60371;BME280;48550;40.588;49.684;2022-12-11T05:57:15;102759.97;;;6.92;100.00
60371;BME280;48550;40.588;49.684;2022-12-11T05:59:41;102755.97;;;6.96;100.00
60371;BME280;48550;40.588;49.684;2022-12-11T06:02:06;102758.50;;;6.97;100.00
60371;BME280;48550;40.588;49.684;2022-12-11T06:04:32;102751.06;;;7.17;100.00
60371;BME280;48550;40.588;49.684;2022-12-11T06:06:58;102745.91;;;7.24;100.00
60371;BME280;48550;40.588;49.684;2022-12-11T06:09:23;102749.56;;;7.15;100.00
60371;BME280;48550;40.588;49.684;2022-12-11T06:11:49;102754.69;;;7.08;100.00
60371;BME280;48550;40.588;49.684;2022-12-11T06:14:15;102764.66;;;6.98;100.00
60371;BME280;48550;40.588;49.684;2022-12-11T06:16:40;102758.84;;;7.03;100.00
60371;BME280;48550;40.588;49.684;2022-12-11T06:19:12;102761.41;;;7.12;100.00
60371;BME280;48550;40.588;49.684;2022-12-11T06:21:39;102751.69;;;7.03;100.00
60371;BME280;48550;40.588;49.684;2022-12-11T06:24:05;102763.28;;;7.28;100.00
60371;BME280;48550;40.588;49.684;2022-12-11T06:26:31;102757.41;;;7.50;100.00
60371;BME280;48550;40.588;49.684;2022-12-11T06:28:56;102756.56;;;7.50;100.00
60371;BME280;48550;40.588;49.684;2022-12-11T06:31:22;102756.91;;;7.63;100.00
60371;BME280;48550;40.588;49.684;2022-12-11T06:33:48;102756.28;;;7.85;100.00
60371;BME280;48550;40.588;49.684;2022-12-11T06:36:17;102760.97;;;7.83;100.00
60371;BME280;48550;40.588;49.684;2022-12-11T06:38:44;102758.13;;;7.85;100.00
60371;BME280;48550;40.588;49.684;2022-12-11T06:41:10;102761.97;;;7.82;100.00
60371;BME280;48550;40.588;49.684;2022-12-11T06:43:37;102749.28;;;7.92;100.00
60371;BME280;48550;40.588;49.684;2022-12-11T06:46:17;102752.50;;;8.20;100.00
60371;BME280;48550;40.588;49.684;2022-12-11T06:48:43;102754.50;;;8.18;100.00
60371;BME280;48550;40.588;49.684;2022-12-11T06:51:12;102757.69;;;8.22;100.00
60371;BME280;48550;40.588;49.684;2022-12-11T06:53:39;102753.13;;;8.06;100.00
60371;BME280;48550;40.588;49.684;2022-12-11T06:56:10;102757.31;;;8.17;100.00
60371;BME280;48550;40.588;49.684;2022-12-11T06:58:36;102754.88;;;8.40;100.00
60371;BME280;48550;40.588;49.684;2022-12-11T07:01:03;102748.94;;;8.85;100.00
60371;BME280;48550;40.588;49.684;2022-12-11T07:03:29;102752.53;;;9.16;100.00
60371;BME280;48550;40.588;49.684;2022-12-11T07:06:01;102750.66;;;9.25;100.00
60371;BME280;48550;40.588;49.684;2022-12-11T07:08:28;102744.63;;;9.23;100.00
60371;BME280;48550;40.588;49.684;2022-12-11T07:10:54;102751.66;;;9.24;100.00
60371;BME280;48550;40.588;49.684;2022-12-11T07:13:19;102741.63;;;9.18;100.00
60371;BME280;48550;40.588;49.684;2022-12-11T07:15:45;102735.00;;;9.06;100.00
60371;BME280;48550;40.588;49.684;2022-12-11T07:18:11;102727.16;;;8.88;100.00
60371;BME280;48550;40.588;49.684;2022-12-11T07:20:36;102730.53;;;8.82;100.00
60371;BME280;48550;40.588;49.684;2022-12-11T07:23:02;102728.19;;;8.79;100.00
60371;BME280;48550;40.588;49.684;2022-12-11T07:25:28;102730.66;;;8.88;100.00
60371;BME280;48550;40.588;49.684;2022-12-11T07:27:54;102733.19;;;8.82;100.00
60371;BME280;48550;40.588;49.684;2022-12-11T07:30:19;102728.66;;;8.90;100.00
60371;BME280;48550;40.588;49.684;2022-12-11T07:32:45;102725.47;;;9.03;100.00
60371;BME280;48550;40.588;49.684;2022-12-11T07:35:10;102718.13;;;8.97;100.00
60371;BME280;48550;40.588;49.684;2022-12-11T07:37:39;102723.59;;;9.12;100.00
60371;BME280;48550;40.588;49.684;2022-12-11T07:40:05;102723.31;;;9.30;100.00
60371;BME280;48550;40.588;49.684;2022-12-11T07:42:32;102714.78;;;9.57;100.00
60371;BME280;48550;40.588;49.684;2022-12-11T07:44:57;102718.13;;;9.59;100.00
60371;BME280;48550;40.588;49.684;2022-12-11T07:47:23;102720.91;;;9.43;100.00
60371;BME280;48550;40.588;49.684;2022-12-11T07:49:49;102707.72;;;9.33;100.00
60371;BME280;48550;40.588;49.684;2022-12-11T07:52:14;102708.00;;;9.15;100.00
60371;BME280;48550;40.588;49.684;2022-12-11T07:54:40;102713.09;;;9.33;100.00
60371;BME280;48550;40.588;49.684;2022-12-11T07:57:06;102703.94;;;9.50;100.00
60371;BME280;48550;40.588;49.684;2022-12-11T07:59:32;102704.84;;;9.43;100.00
60371;BME280;48550;40.588;49.684;2022-12-11T08:01:57;102696.75;;;9.51;100.00
60371;BME280;48550;40.588;49.684;2022-12-11T08:04:23;102699.91;;;9.23;100.00
60371;BME280;48550;40.588;49.684;2022-12-11T08:06:49;102692.84;;;9.31;100.00
60371;BME280;48550;40.588;49.684;2022-12-11T08:09:14;102690.72;;;9.49;100.00
60371;BME280;48550;40.588;49.684;2022-12-11T08:11:40;102690.97;;;9.62;100.00
60371;BME280;48550;40.588;49.684;2022-12-11T08:14:06;102686.00;;;9.51;100.00
60371;BME280;48550;40.588;49.684;2022-12-11T08:16:33;102680.75;;;9.35;100.00
60371;BME280;48550;40.588;49.684;2022-12-11T08:18:58;102676.41;;;9.34;100.00
60371;BME280;48550;40.588;49.684;2022-12-11T08:21:26;102677.34;;;9.18;100.00
60371;BME280;48550;40.588;49.684;2022-12-11T08:23:53;102677.88;;;9.13;100.00
60371;BME280;48550;40.588;49.684;2022-12-11T08:26:21;102672.56;;;9.05;100.00
60371;BME280;48550;40.588;49.684;2022-12-11T08:28:47;102663.06;;;8.95;100.00
60371;BME280;48550;40.588;49.684;2022-12-11T08:31:15;102664.16;;;9.08;100.00
60371;BME280;48550;40.588;49.684;2022-12-11T08:33:41;102654.25;;;9.17;100.00
60371;BME280;48550;40.588;49.684;2022-12-11T08:36:09;102644.66;;;9.22;100.00
60371;BME280;48550;40.588;49.684;2022-12-11T08:38:36;102647.13;;;9.32;100.00
60371;BME280;48550;40.588;49.684;2022-12-11T08:41:12;102647.59;;;9.36;100.00
60371;BME280;48550;40.588;49.684;2022-12-11T08:43:39;102644.47;;;9.24;100.00
60371;BME280;48550;40.588;49.684;2022-12-11T08:46:05;102644.13;;;9.27;100.00
60371;BME280;48550;40.588;49.684;2022-12-11T08:48:32;102633.91;;;9.31;100.00
60371;BME280;48550;40.588;49.684;2022-12-11T08:51:00;102628.59;;;9.22;100.00
60371;BME280;48550;40.588;49.684;2022-12-11T08:53:30;102610.53;;;9.16;100.00
60371;BME280;48550;40.588;49.684;2022-12-11T08:56:05;102624.47;;;9.12;100.00
60371;BME280;48550;40.588;49.684;2022-12-11T08:58:31;102610.38;;;9.18;100.00
60371;BME280;48550;40.588;49.684;2022-12-11T09:00:57;102617.56;;;9.17;100.00
60371;BME280;48550;40.588;49.684;2022-12-11T09:03:23;102610.31;;;9.26;100.00
60371;BME280;48550;40.588;49.684;2022-12-11T09:05:49;102613.41;;;9.15;100.00
60371;BME280;48550;40.588;49.684;2022-12-11T09:08:14;102614.63;;;9.04;100.00
60371;BME280;48550;40.588;49.684;2022-12-11T09:10:40;102605.81;;;8.87;100.00
60371;BME280;48550;40.588;49.684;2022-12-11T09:13:06;102607.00;;;8.93;100.00
60371;BME280;48550;40.588;49.684;2022-12-11T09:15:32;102613.50;;;8.90;100.00
60371;BME280;48550;40.588;49.684;2022-12-11T09:17:58;102606.66;;;8.88;100.00
60371;BME280;48550;40.588;49.684;2022-12-11T09:20:23;102605.22;;;8.77;100.00
60371;BME280;48550;40.588;49.684;2022-12-11T09:22:49;102607.00;;;8.85;100.00
60371;BME280;48550;40.588;49.684;2022-12-11T09:25:15;102602.13;;;8.97;100.00
60371;BME280;48550;40.588;49.684;2022-12-11T09:27:40;102598.91;;;9.01;100.00
60371;BME280;48550;40.588;49.684;2022-12-11T09:30:07;102596.59;;;8.90;100.00
60371;BME280;48550;40.588;49.684;2022-12-11T09:32:33;102603.25;;;9.02;100.00
60371;BME280;48550;40.588;49.684;2022-12-11T09:34:59;102593.69;;;9.08;100.00
60371;BME280;48550;40.588;49.684;2022-12-11T09:37:24;102597.94;;;8.94;100.00
60371;BME280;48550;40.588;49.684;2022-12-11T09:39:50;102589.47;;;9.13;100.00
60371;BME280;48550;40.588;49.684;2022-12-11T09:42:37;102588.09;;;9.17;100.00
60371;BME280;48550;40.588;49.684;2022-12-11T09:45:12;102583.63;;;9.10;100.00
60371;BME280;48550;40.588;49.684;2022-12-11T09:47:42;102587.50;;;9.07;100.00
60371;BME280;48550;40.588;49.684;2022-12-11T09:55:15;102574.81;;;9.01;100.00
60371;BME280;48550;40.588;49.684;2022-12-11T09:58:05;102578.50;;;9.00;100.00
60371;BME280;48550;40.588;49.684;2022-12-11T10:00:46;102583.72;;;8.94;100.00
60371;BME280;48550;40.588;49.684;2022-12-11T10:17:18;102565.63;;;8.96;100.00
60371;BME280;48550;40.588;49.684;2022-12-11T10:19:45;102563.25;;;9.01;100.00
60371;BME280;48550;40.588;49.684;2022-12-11T10:22:26;102564.09;;;9.01;100.00
60371;BME280;48550;40.588;49.684;2022-12-11T10:24:56;102554.78;;;8.89;100.00
60371;BME280;48550;40.588;49.684;2022-12-11T10:27:27;102550.44;;;8.88;100.00
60371;BME280;48550;40.588;49.684;2022-12-11T10:35:05;102561.53;;;8.77;100.00
60371;BME280;48550;40.588;49.684;2022-12-11T10:37:31;102561.88;;;8.74;100.00
60371;BME280;48550;40.588;49.684;2022-12-11T10:39:57;102551.78;;;8.84;100.00
60371;BME280;48550;40.588;49.684;2022-12-11T10:42:23;102560.00;;;8.82;100.00
60371;BME280;48550;40.588;49.684;2022-12-11T10:45:00;102564.69;;;8.80;100.00
60371;BME280;48550;40.588;49.684;2022-12-11T10:47:26;102567.19;;;8.82;100.00
60371;BME280;48550;40.588;49.684;2022-12-11T10:49:58;102562.84;;;8.81;100.00
60371;BME280;48550;40.588;49.684;2022-12-11T10:52:31;102565.84;;;8.86;100.00
60371;BME280;48550;40.588;49.684;2022-12-11T10:55:06;102557.97;;;8.84;100.00
60371;BME280;48550;40.588;49.684;2022-12-11T10:57:41;102557.16;;;8.84;100.00
60371;BME280;48550;40.588;49.684;2022-12-11T11:00:28;102556.63;;;8.88;100.00
60371;BME280;48550;40.588;49.684;2022-12-11T11:02:54;102553.59;;;8.91;100.00
60371;BME280;48550;40.588;49.684;2022-12-11T11:05:34;102549.25;;;8.90;100.00
60371;BME280;48550;40.588;49.684;2022-12-11T11:08:13;102550.91;;;8.91;100.00
60371;BME280;48550;40.588;49.684;2022-12-11T11:10:56;102549.56;;;8.96;100.00
60371;BME280;48550;40.588;49.684;2022-12-11T11:13:26;102552.06;;;8.97;100.00
60371;BME280;48550;40.588;49.684;2022-12-11T11:16:00;102555.94;;;8.95;100.00
60371;BME280;48550;40.588;49.684;2022-12-11T11:18:28;102551.13;;;8.82;100.00
60371;BME280;48550;40.588;49.684;2022-12-11T11:20:55;102553.81;;;8.82;100.00
60371;BME280;48550;40.588;49.684;2022-12-11T11:23:21;102553.69;;;8.75;100.00
60371;BME280;48550;40.588;49.684;2022-12-11T11:25:59;102552.09;;;8.58;100.00
60371;BME280;48550;40.588;49.684;2022-12-11T11:28:34;102552.63;;;8.53;100.00
60371;BME280;48550;40.588;49.684;2022-12-11T11:31:11;102551.00;;;8.44;100.00
60371;BME280;48550;40.588;49.684;2022-12-11T11:34:15;102558.97;;;8.52;100.00
60371;BME280;48550;40.588;49.684;2022-12-11T11:36:57;102559.81;;;8.53;100.00
60371;BME280;48550;40.588;49.684;2022-12-11T11:39:34;102551.47;;;8.48;100.00
60371;BME280;48550;40.588;49.684;2022-12-11T11:42:07;102563.69;;;8.50;100.00
60371;BME280;48550;40.588;49.684;2022-12-11T11:47:29;102556.22;;;8.38;100.00
60371;BME280;48550;40.588;49.684;2022-12-11T11:52:43;102558.97;;;8.52;100.00
60371;BME280;48550;40.588;49.684;2022-12-11T11:58:13;102561.34;;;8.47;100.00
60371;BME280;48550;40.588;49.684;2022-12-11T12:00:40;102567.31;;;8.57;100.00
60371;BME280;48550;40.588;49.684;2022-12-11T12:03:12;102570.00;;;8.57;100.00
60371;BME280;48550;40.588;49.684;2022-12-11T12:08:29;102566.25;;;8.27;100.00
60371;BME280;48550;40.588;49.684;2022-12-11T12:11:06;102571.44;;;8.21;100.00
60371;BME280;48550;40.588;49.684;2022-12-11T12:16:45;102574.50;;;7.93;100.00
60371;BME280;48550;40.588;49.684;2022-12-11T12:19:40;102575.81;;;7.97;100.00
60371;BME280;48550;40.588;49.684;2022-12-11T12:25:14;102574.31;;;7.95;100.00
60371;BME280;48550;40.588;49.684;2022-12-11T12:27:58;102572.97;;;7.99;100.00
60371;BME280;48550;40.588;49.684;2022-12-11T12:30:30;102571.47;;;7.96;100.00
60371;BME280;48550;40.588;49.684;2022-12-11T12:38:39;102578.16;;;8.01;100.00
60371;BME280;48550;40.588;49.684;2022-12-11T12:49:59;102573.19;;;7.73;100.00
60371;BME280;48550;40.588;49.684;2022-12-11T12:52:20;102566.69;;;7.68;100.00
60371;BME280;48550;40.588;49.684;2022-12-11T12:54:52;102565.50;;;7.78;100.00
60371;BME280;48550;40.588;49.684;2022-12-11T12:57:39;102570.19;;;7.76;100.00
60371;BME280;48550;40.588;49.684;2022-12-11T13:00:07;102568.66;;;7.82;100.00
60371;BME280;48550;40.588;49.684;2022-12-11T13:02:36;102563.50;;;7.80;100.00
60371;BME280;48550;40.588;49.684;2022-12-11T13:05:24;102568.31;;;7.85;100.00
60371;BME280;48550;40.588;49.684;2022-12-11T13:07:55;102565.31;;;7.88;100.00
60371;BME280;48550;40.588;49.684;2022-12-11T13:10:29;102568.66;;;7.90;100.00
60371;BME280;48550;40.588;49.684;2022-12-11T13:12:55;102572.16;;;7.82;100.00
60371;BME280;48550;40.588;49.684;2022-12-11T13:18:00;102563.50;;;7.64;100.00
60371;BME280;48550;40.588;49.684;2022-12-11T13:20:29;102571.84;;;7.69;100.00
60371;BME280;48550;40.588;49.684;2022-12-11T13:23:31;102566.19;;;7.72;100.00
60371;BME280;48550;40.588;49.684;2022-12-11T13:26:00;102567.00;;;7.73;100.00
60371;BME280;48550;40.588;49.684;2022-12-11T13:28:49;102564.50;;;7.71;100.00
60371;BME280;48550;40.588;49.684;2022-12-11T13:33:53;102564.31;;;7.81;100.00
60371;BME280;48550;40.588;49.684;2022-12-11T13:38:59;102564.66;;;7.86;100.00
60371;BME280;48550;40.588;49.684;2022-12-11T13:41:26;102570.00;;;7.86;100.00
60371;BME280;48550;40.588;49.684;2022-12-11T13:43:53;102565.00;;;7.83;100.00
60371;BME280;48550;40.588;49.684;2022-12-11T13:46:26;102558.66;;;7.76;100.00
60371;BME280;48550;40.588;49.684;2022-12-11T13:48:56;102567.50;;;7.76;100.00
60371;BME280;48550;40.588;49.684;2022-12-11T13:51:29;102564.31;;;7.81;100.00
60371;BME280;48550;40.588;49.684;2022-12-11T13:54:13;102569.00;;;7.87;100.00
60371;BME280;48550;40.588;49.684;2022-12-11T13:56:51;102571.00;;;7.85;100.00
60371;BME280;48550;40.588;49.684;2022-12-11T13:59:39;102568.81;;;7.88;100.00
60371;BME280;48550;40.588;49.684;2022-12-11T14:04:43;102581.50;;;8.03;100.00
60371;BME280;48550;40.588;49.684;2022-12-11T14:07:10;102577.47;;;8.07;100.00
60371;BME280;48550;40.588;49.684;2022-12-11T14:09:38;102579.28;;;8.14;100.00
60371;BME280;48550;40.588;49.684;2022-12-11T14:12:14;102574.63;;;8.08;100.00